createdAt,value
2023-05-28T00:00:58.219Z,72.90
2023-05-28T00:03:27.524Z,71.80
2023-05-28T00:05:56.198Z,70.50
2023-05-28T00:08:25.046Z,72.95
2023-05-28T00:11:00.807Z,70.53
2023-05-28T00:13:31.906Z,70.02
2023-05-28T00:16:00.299Z,70.91
2023-05-28T00:18:29.821Z,70.56
2023-05-28T00:20:58.477Z,69.95
2023-05-28T00:23:27.162Z,71.28
2023-05-28T00:25:55.733Z,69.92
2023-05-28T00:28:24.141Z,70.77
2023-05-28T00:30:53.836Z,70.17
2023-05-28T00:33:22.168Z,70.73
2023-05-28T00:35:51.235Z,70.12
2023-05-28T00:38:19.488Z,69.52
2023-05-28T00:40:47.826Z,69.98
2023-05-28T00:43:16.955Z,70.72
2023-05-28T00:45:45.513Z,70.79
2023-05-28T00:48:15.346Z,70.56
2023-05-28T00:50:45.380Z,68.54
2023-05-28T00:53:15.245Z,70.83
2023-05-28T00:55:43.728Z,68.83
2023-05-28T00:58:12.565Z,69.49
2023-05-28T01:00:44.274Z,69.02
2023-05-28T01:03:12.550Z,69.19
2023-05-28T01:05:43.071Z,69.10
2023-05-28T01:08:11.720Z,71.53
2023-05-28T01:10:40.357Z,74.05
2023-05-28T01:13:09.979Z,74.37
2023-05-28T01:15:38.627Z,73.98
2023-05-28T01:18:07.690Z,77.18
2023-05-28T01:20:37.146Z,78.05
2023-05-28T01:23:09.249Z,79.58
2023-05-28T01:25:40.008Z,77.65
2023-05-28T01:28:14.710Z,79.38
2023-05-28T01:30:44.904Z,78.18
2023-05-28T01:33:13.587Z,77.54
2023-05-28T01:35:42.258Z,77.09
2023-05-28T01:38:12.717Z,77.46
2023-05-28T01:40:46.561Z,78.54
2023-05-28T01:43:15.818Z,79.33
2023-05-28T01:45:44.899Z,80.21
2023-05-28T01:48:13.765Z,81.03
2023-05-28T01:50:42.142Z,80.49
2023-05-28T01:53:10.556Z,81.60
2023-05-28T01:55:38.797Z,80.04
2023-05-28T01:58:09.665Z,80.93
2023-05-28T02:00:44.995Z,79.99
2023-05-28T02:03:13.340Z,80.25
2023-05-28T02:05:41.657Z,80.11
2023-05-28T02:08:10.333Z,80.41
2023-05-28T02:10:38.625Z,81.27
2023-05-28T02:13:08.271Z,81.67
2023-05-28T02:15:36.682Z,82.70
2023-05-28T02:18:05.272Z,82.03
2023-05-28T02:20:33.649Z,83.50
2023-05-28T02:23:02.038Z,85.82
2023-05-28T02:25:30.333Z,87.67
2023-05-28T02:27:59.486Z,92.38
2023-05-28T02:30:29.250Z,93.43
2023-05-28T02:32:57.897Z,95.31
2023-05-28T02:35:26.239Z,97.52
2023-05-28T02:37:54.523Z,100.00
2023-05-28T02:40:22.921Z,94.38
2023-05-28T02:42:51.341Z,100.00
2023-05-28T02:45:19.620Z,92.58
2023-05-28T02:47:49.398Z,92.31
2023-05-28T02:50:17.727Z,93.06
2023-05-28T02:52:45.998Z,91.40
2023-05-28T02:55:14.227Z,90.60
2023-05-28T02:57:43.595Z,95.41
2023-05-28T03:00:13.612Z,95.17
2023-05-28T03:02:41.979Z,88.09
2023-05-28T03:05:11.773Z,89.79
2023-05-28T03:07:40.230Z,89.00
2023-05-28T03:10:09.566Z,92.91
2023-05-28T03:12:37.903Z,96.18
2023-05-28T03:15:06.850Z,98.17
2023-05-28T03:17:35.136Z,97.41
2023-05-28T03:20:04.060Z,98.20
2023-05-28T03:22:33.760Z,100.00
2023-05-28T03:25:02.165Z,97.73
2023-05-28T03:27:30.839Z,98.93
2023-05-28T03:29:59.229Z,100.00
2023-05-28T03:32:27.655Z,98.48
2023-05-28T03:34:55.898Z,94.15
2023-05-28T03:37:24.200Z,93.64
2023-05-28T03:39:53.864Z,90.42
2023-05-28T03:42:22.218Z,90.35
2023-05-28T03:44:50.460Z,89.84
2023-05-28T03:47:18.798Z,88.44
2023-05-28T03:49:47.186Z,88.30
2023-05-28T03:52:15.568Z,88.48
2023-05-28T03:54:43.925Z,88.93
2023-05-28T03:57:13.583Z,86.72
2023-05-28T03:59:41.939Z,86.49
2023-05-28T04:02:10.475Z,88.57
2023-05-28T04:04:38.783Z,88.72
2023-05-28T04:07:08.424Z,87.19
2023-05-28T04:09:36.751Z,87.28
2023-05-28T04:12:05.355Z,86.69
2023-05-28T04:14:35.042Z,84.79
2023-05-28T04:17:04.458Z,87.15
2023-05-28T04:19:32.782Z,82.23
2023-05-28T04:22:01.022Z,81.63
2023-05-28T04:24:29.358Z,83.87
2023-05-28T04:26:58.300Z,81.87
2023-05-28T04:29:30.171Z,80.74
2023-05-28T04:32:00.035Z,80.89
2023-05-28T04:34:28.709Z,79.00
2023-05-28T04:36:59.399Z,81.03
2023-05-28T04:39:27.731Z,85.79
2023-05-28T04:41:56.008Z,85.88
2023-05-28T04:44:27.259Z,87.79
2023-05-28T04:46:55.819Z,86.96
2023-05-28T04:49:25.542Z,88.69
2023-05-28T04:51:54.110Z,90.77
2023-05-28T04:54:22.376Z,91.94
2023-05-28T04:56:50.690Z,90.84
2023-05-28T04:59:19.578Z,88.28
2023-05-28T05:01:47.911Z,83.35
2023-05-28T05:04:16.323Z,80.42
2023-05-28T05:06:46.141Z,82.70
2023-05-28T05:09:14.411Z,85.56
2023-05-28T05:11:42.709Z,86.48
2023-05-28T05:14:11.725Z,80.72
2023-05-28T05:16:40.177Z,82.05
2023-05-28T05:19:08.678Z,80.75
2023-05-28T05:21:37.077Z,82.41
2023-05-28T05:24:07.271Z,80.31
2023-05-28T05:26:35.543Z,81.41
2023-05-28T05:29:03.847Z,81.58
2023-05-28T05:31:32.857Z,81.09
2023-05-28T05:34:01.268Z,76.83
2023-05-28T05:36:29.862Z,76.46
2023-05-28T05:38:58.164Z,75.58
2023-05-28T05:41:27.873Z,73.56
2023-05-28T05:43:56.166Z,71.59
2023-05-28T05:46:24.468Z,71.01
2023-05-28T05:48:52.818Z,69.03
2023-05-28T05:51:21.250Z,69.49
2023-05-28T05:53:49.528Z,69.29
2023-05-28T05:56:17.836Z,68.72
2023-05-28T05:58:47.522Z,67.87
2023-05-28T06:01:18.700Z,67.75
2023-05-28T06:03:47.038Z,69.16
2023-05-28T06:06:15.559Z,67.79
2023-05-28T06:08:43.865Z,67.30
2023-05-28T06:11:12.260Z,68.00
2023-05-28T06:13:40.890Z,67.48
2023-05-28T06:16:12.193Z,68.22
2023-05-28T06:18:41.192Z,68.64
2023-05-28T06:21:09.902Z,72.75
2023-05-28T06:23:38.608Z,72.19
2023-05-28T06:26:06.924Z,70.94
2023-05-28T06:28:35.144Z,67.99
2023-05-28T06:31:04.340Z,69.23
2023-05-28T06:33:33.973Z,68.35
2023-05-28T06:36:02.754Z,67.82
2023-05-28T06:38:30.989Z,68.17
2023-05-28T06:40:59.171Z,69.23
2023-05-28T06:43:27.420Z,70.28
2023-05-28T06:45:56.192Z,67.75
2023-05-28T06:48:24.461Z,67.87
2023-05-28T06:50:54.104Z,68.10
2023-05-28T06:53:22.530Z,67.71
2023-05-28T06:55:50.903Z,66.83
2023-05-28T06:58:19.304Z,66.13
2023-05-28T07:00:47.560Z,65.47
2023-05-28T07:03:15.786Z,71.19
2023-05-28T07:05:44.123Z,66.42
2023-05-28T07:08:13.803Z,65.14
2023-05-28T07:10:41.999Z,64.52
2023-05-28T07:13:10.340Z,64.92
2023-05-28T07:15:40.336Z,64.85
2023-05-28T07:18:08.756Z,67.18
2023-05-28T07:20:37.076Z,65.78
2023-05-28T07:23:05.867Z,65.40
2023-05-28T07:25:35.627Z,70.89
2023-05-28T07:28:03.899Z,69.31
2023-05-28T07:30:32.087Z,65.24
2023-05-28T07:33:00.381Z,66.24
2023-05-28T07:35:28.696Z,64.24
2023-05-28T07:37:57.075Z,65.25
2023-05-28T07:40:25.386Z,65.46
2023-05-28T07:42:54.998Z,63.79
2023-05-28T07:45:23.372Z,63.74
2023-05-28T07:47:51.621Z,62.79
2023-05-28T07:50:19.856Z,63.22
2023-05-28T07:52:48.553Z,62.94
2023-05-28T07:55:16.925Z,62.78
2023-05-28T07:57:45.146Z,62.08
2023-05-28T08:00:17.368Z,60.40
2023-05-28T08:02:47.558Z,59.97
2023-05-28T08:05:19.559Z,62.70
2023-05-28T08:07:47.804Z,65.85
2023-05-28T08:10:16.062Z,61.26
2023-05-28T08:12:44.402Z,62.40
2023-05-28T08:15:14.272Z,61.92
2023-05-28T08:17:42.478Z,62.39
2023-05-28T08:20:13.050Z,60.54
2023-05-28T08:22:41.737Z,60.85
2023-05-28T08:25:10.697Z,61.07
2023-05-28T08:27:38.871Z,61.69
2023-05-28T08:30:09.388Z,61.46
2023-05-28T08:32:39.108Z,61.93
2023-05-28T08:35:07.938Z,62.15
2023-05-28T08:37:36.126Z,64.46
2023-05-28T08:40:08.949Z,63.10
2023-05-28T08:42:37.314Z,63.14
2023-05-28T08:45:06.453Z,62.25
2023-05-28T08:47:35.368Z,63.48
2023-05-28T08:50:08.177Z,60.92
2023-05-28T08:52:36.960Z,59.95
2023-05-28T08:55:05.668Z,60.30
2023-05-28T08:57:34.262Z,58.00
2023-05-28T09:00:08.193Z,58.08
2023-05-28T09:02:37.214Z,59.12
2023-05-28T09:05:08.071Z,59.47
2023-05-28T09:07:54.612Z,58.68
2023-05-28T09:10:24.630Z,62.65
2023-05-28T09:13:00.411Z,66.46
2023-05-28T09:15:28.701Z,68.53
2023-05-28T09:17:59.433Z,66.77
2023-05-28T09:20:29.727Z,66.05
2023-05-28T09:23:02.337Z,66.36
2023-05-28T09:25:34.144Z,66.42
2023-05-28T09:28:02.952Z,67.57
2023-05-28T09:30:31.479Z,64.68
2023-05-28T09:33:03.949Z,62.62
2023-05-28T09:35:34.725Z,60.74
2023-05-28T09:38:05.114Z,60.81
2023-05-28T09:40:33.502Z,59.14
2023-05-28T09:43:06.788Z,59.12
2023-05-28T09:45:35.584Z,59.84
2023-05-28T09:48:04.275Z,61.30
2023-05-28T09:50:34.199Z,60.29
2023-05-28T09:53:05.247Z,62.67
2023-05-28T09:55:34.802Z,63.17
2023-05-28T09:58:05.270Z,63.99
2023-05-28T10:00:35.795Z,64.66
2023-05-28T10:03:15.217Z,67.59
2023-05-28T10:05:46.963Z,69.32
2023-05-28T10:08:18.472Z,69.18
2023-05-28T10:10:51.975Z,69.57
2023-05-28T10:13:20.360Z,72.63
2023-05-28T10:15:49.207Z,74.48
2023-05-28T10:18:18.044Z,74.17
2023-05-28T10:20:48.986Z,73.08
2023-05-28T10:23:18.500Z,76.65
2023-05-28T10:25:47.106Z,73.29
2023-05-28T10:28:17.594Z,70.60
2023-05-28T10:30:46.060Z,73.62
2023-05-28T10:33:18.281Z,72.88
2023-05-28T10:35:56.367Z,74.16
2023-05-28T10:38:25.727Z,70.14
2023-05-28T10:41:01.743Z,71.17
2023-05-28T10:43:43.969Z,71.93
2023-05-28T10:46:12.854Z,70.83
2023-05-28T10:48:42.527Z,70.14
2023-05-28T10:51:13.581Z,75.92
2023-05-28T10:53:41.781Z,76.89
2023-05-28T10:56:10.209Z,79.52
2023-05-28T10:58:39.588Z,89.20
2023-05-28T11:01:21.010Z,95.07
2023-05-28T11:03:55.361Z,94.38
2023-05-28T11:06:28.019Z,97.09
2023-05-28T11:08:59.530Z,90.27
2023-05-28T11:11:28.936Z,92.28
2023-05-28T11:13:57.287Z,88.15
2023-05-28T11:16:25.695Z,85.14
2023-05-28T11:19:03.931Z,87.97
2023-05-28T11:21:34.624Z,87.74
2023-05-28T11:24:04.009Z,79.88
2023-05-28T11:26:32.943Z,81.42
2023-05-28T11:29:02.227Z,90.85
2023-05-28T11:31:31.956Z,95.28
2023-05-28T11:34:00.440Z,88.62
2023-05-28T11:36:28.746Z,79.05
2023-05-28T11:39:05.186Z,82.44
2023-05-28T11:41:34.291Z,84.21
2023-05-28T11:44:02.537Z,77.97
2023-05-28T11:46:30.862Z,77.22
2023-05-28T11:48:59.170Z,72.25
2023-05-28T11:51:27.425Z,73.66
2023-05-28T11:53:56.826Z,72.43
2023-05-28T11:56:28.971Z,71.74
2023-05-28T11:58:57.197Z,69.96
2023-05-28T12:01:25.454Z,67.34
2023-05-28T12:03:53.731Z,63.34
2023-05-28T12:06:32.562Z,60.84
2023-05-28T12:09:08.750Z,57.80
2023-05-28T12:11:38.407Z,58.09
2023-05-28T12:14:13.688Z,57.50
2023-05-28T12:16:47.777Z,56.49
2023-05-28T12:19:17.204Z,57.84
2023-05-28T12:21:46.796Z,58.81
2023-05-28T12:24:16.443Z,59.65
2023-05-28T12:26:46.333Z,59.68
2023-05-28T12:29:14.613Z,58.83
2023-05-28T12:31:42.895Z,58.62
2023-05-28T12:34:11.429Z,61.36
2023-05-28T12:36:39.627Z,60.13
2023-05-28T12:39:08.048Z,61.14
2023-05-28T12:41:36.437Z,60.89
2023-05-28T12:44:06.039Z,59.97
2023-05-28T12:46:34.260Z,58.40
2023-05-28T12:49:02.612Z,58.60
2023-05-28T12:51:32.330Z,61.13
2023-05-28T12:54:01.273Z,57.25
2023-05-28T12:56:29.563Z,58.67
2023-05-28T12:58:57.736Z,58.24
2023-05-28T13:01:27.776Z,57.79
2023-05-28T13:03:56.222Z,57.30
2023-05-28T13:06:24.462Z,57.40
2023-05-28T13:08:52.677Z,57.19
2023-05-28T13:11:21.448Z,57.04
2023-05-28T13:13:49.692Z,57.45
2023-05-28T13:16:19.211Z,55.10
2023-05-28T13:18:48.923Z,55.32
2023-05-28T13:21:17.189Z,56.28
2023-05-28T13:23:45.482Z,53.63
2023-05-28T13:26:13.818Z,52.56
2023-05-28T13:28:42.105Z,51.10
2023-05-28T13:31:10.440Z,51.02
2023-05-28T13:33:38.681Z,52.40
2023-05-28T13:36:08.751Z,54.76
2023-05-28T13:38:36.972Z,55.57
2023-05-28T13:41:05.379Z,54.11
2023-05-28T13:43:33.658Z,55.94
2023-05-28T13:46:01.895Z,54.61
2023-05-28T13:48:30.085Z,61.01
2023-05-28T13:50:58.339Z,56.27
2023-05-28T13:53:28.521Z,52.33
2023-05-28T13:55:56.945Z,52.56
2023-05-28T13:58:26.127Z,53.96
2023-05-28T14:00:54.415Z,53.69
2023-05-28T14:03:22.756Z,57.38
2023-05-28T14:05:51.116Z,53.08
2023-05-28T14:08:19.425Z,53.43
2023-05-28T14:10:49.094Z,53.65
2023-05-28T14:13:17.327Z,53.77
2023-05-28T14:15:45.593Z,53.13
2023-05-28T14:18:13.908Z,53.40
2023-05-28T14:20:42.155Z,54.70
2023-05-28T14:23:10.498Z,54.10
2023-05-28T14:25:38.843Z,53.78
2023-05-28T14:28:12.250Z,53.87
2023-05-28T14:30:41.244Z,52.45
2023-05-28T14:33:09.897Z,53.20
2023-05-28T14:35:38.493Z,53.61
2023-05-28T14:38:06.746Z,53.79
2023-05-28T14:40:35.094Z,53.09
2023-05-28T14:43:03.401Z,54.41
2023-05-28T14:45:33.118Z,54.68
2023-05-28T14:48:02.336Z,55.23
2023-05-28T14:50:30.702Z,54.55
2023-05-28T14:52:58.962Z,54.55
2023-05-28T14:55:27.312Z,55.65
2023-05-28T14:57:55.721Z,56.84
2023-05-28T15:00:24.200Z,57.01
2023-05-28T15:02:54.093Z,56.93
2023-05-28T15:05:22.676Z,56.98
2023-05-28T15:07:50.933Z,55.21
2023-05-28T15:10:19.294Z,53.73
2023-05-28T15:12:47.664Z,54.36
2023-05-28T15:15:16.428Z,52.97
2023-05-28T15:17:44.750Z,54.20
2023-05-28T15:20:14.532Z,54.45
2023-05-28T15:22:42.863Z,55.34
2023-05-28T15:25:11.938Z,55.52
2023-05-28T15:27:40.782Z,56.18
2023-05-28T15:30:10.097Z,58.26
2023-05-28T15:32:40.656Z,56.87
2023-05-28T15:35:10.305Z,56.78
2023-05-28T15:37:40.564Z,55.92
2023-05-28T15:40:10.749Z,57.56
2023-05-28T15:42:42.887Z,58.18
2023-05-28T15:45:11.994Z,58.07
2023-05-28T15:47:40.277Z,57.31
2023-05-28T15:50:09.464Z,56.94
2023-05-28T15:52:39.170Z,57.92
2023-05-28T15:55:08.371Z,58.25
2023-05-28T15:57:37.026Z,57.90
2023-05-28T16:00:06.068Z,58.17
2023-05-28T16:02:36.252Z,57.85
2023-05-28T16:05:04.909Z,58.46
2023-05-28T16:07:33.495Z,57.96
2023-05-28T16:10:03.848Z,59.04
2023-05-28T16:12:34.084Z,59.26
2023-05-28T16:15:06.400Z,60.03
2023-05-28T16:17:39.683Z,59.33
2023-05-28T16:20:10.970Z,59.47
2023-05-28T16:22:40.741Z,58.26
2023-05-28T16:25:12.566Z,58.73
2023-05-28T16:27:40.962Z,59.55
2023-05-28T16:30:10.301Z,59.06
2023-05-28T16:32:39.118Z,58.92
2023-05-28T16:35:08.302Z,59.70
2023-05-28T16:37:37.330Z,58.81
2023-05-28T16:40:08.880Z,58.94
2023-05-28T16:42:40.570Z,59.70
2023-05-28T16:45:10.354Z,58.52
2023-05-28T16:47:40.700Z,58.97
2023-05-28T16:50:09.857Z,59.25
2023-05-28T16:52:39.500Z,59.06
2023-05-28T16:55:08.145Z,59.65
2023-05-28T16:57:36.944Z,60.04
2023-05-28T17:00:08.216Z,60.11
2023-05-28T17:02:36.663Z,60.28
2023-05-28T17:05:05.898Z,59.94
2023-05-28T17:07:34.209Z,60.69
2023-05-28T17:10:02.441Z,59.90
2023-05-28T17:12:30.732Z,60.53
2023-05-28T17:14:59.109Z,61.29
2023-05-28T17:17:28.804Z,61.62
2023-05-28T17:19:57.072Z,62.52
2023-05-28T17:22:25.451Z,62.58
2023-05-28T17:24:53.787Z,62.87
2023-05-28T17:27:22.277Z,63.12
2023-05-28T17:29:50.765Z,63.76
2023-05-28T17:32:19.198Z,63.06
2023-05-28T17:34:49.977Z,63.00
2023-05-28T17:37:19.084Z,62.63
2023-05-28T17:39:47.596Z,63.13
2023-05-28T17:42:15.943Z,62.97
2023-05-28T17:44:44.320Z,62.14
2023-05-28T17:47:12.718Z,62.74
2023-05-28T17:49:41.493Z,61.91
2023-05-28T17:52:11.205Z,63.16
2023-05-28T17:54:39.421Z,63.35
2023-05-28T17:57:07.769Z,63.23
2023-05-28T17:59:36.048Z,63.51
2023-05-28T18:02:04.543Z,64.29
2023-05-28T18:04:32.898Z,64.74
2023-05-28T18:07:01.189Z,64.59
2023-05-28T18:09:30.910Z,65.42
2023-05-28T18:11:59.232Z,66.65
2023-05-28T18:14:31.467Z,67.10
2023-05-28T18:17:00.252Z,67.84
2023-05-28T18:19:29.108Z,67.90
2023-05-28T18:21:57.486Z,67.43
2023-05-28T18:24:25.888Z,67.69
2023-05-28T18:26:55.585Z,68.04
2023-05-28T18:29:23.975Z,67.90
2023-05-28T18:31:52.479Z,67.28
2023-05-28T18:34:20.952Z,67.23
2023-05-28T18:36:49.241Z,67.11
2023-05-28T18:39:17.689Z,67.40
2023-05-28T18:42:03.461Z,66.71
2023-05-28T18:44:33.136Z,66.28
2023-05-28T18:47:01.543Z,65.57
2023-05-28T18:49:31.034Z,65.80
2023-05-28T18:51:59.342Z,65.67
2023-05-28T18:54:27.653Z,65.37
2023-05-28T18:56:56.277Z,64.96
2023-05-28T18:59:24.671Z,64.50
2023-05-28T19:01:54.332Z,64.19
2023-05-28T19:04:22.638Z,63.66
2023-05-28T19:06:50.946Z,64.81
2023-05-28T19:09:19.220Z,64.73
2023-05-28T19:11:47.483Z,64.24
2023-05-28T19:14:15.817Z,65.45
2023-05-28T19:16:44.213Z,66.17
2023-05-28T19:19:14.059Z,66.31
2023-05-28T19:21:42.321Z,66.51
2023-05-28T19:24:10.633Z,67.63
2023-05-28T19:26:39.078Z,69.64
2023-05-28T19:29:07.314Z,69.92
2023-05-28T19:31:40.822Z,69.48
2023-05-28T19:34:09.324Z,69.20
2023-05-28T19:36:39.022Z,70.13
2023-05-28T19:39:07.651Z,70.80
2023-05-28T19:41:38.467Z,69.67
2023-05-28T19:44:08.193Z,68.20
2023-05-28T19:46:36.720Z,67.78
2023-05-28T19:49:05.042Z,67.01
2023-05-28T19:51:33.430Z,66.39
2023-05-28T19:54:03.155Z,68.56
2023-05-28T19:56:31.404Z,68.24
2023-05-28T19:58:59.663Z,70.26
2023-05-28T20:01:28.067Z,70.62
2023-05-28T20:03:56.334Z,70.31
2023-05-28T20:06:24.622Z,71.39
2023-05-28T20:08:52.933Z,73.05
2023-05-28T20:11:22.997Z,69.11
2023-05-28T20:13:51.255Z,71.85
2023-05-28T20:16:21.723Z,80.13
2023-05-28T20:18:50.676Z,90.93
2023-05-28T20:21:18.952Z,100.00
2023-05-28T20:23:47.271Z,100.00
2023-05-28T20:26:15.666Z,100.00
2023-05-28T20:28:45.405Z,100.00
2023-05-28T20:31:13.725Z,100.00
2023-05-28T20:33:42.030Z,100.00
2023-05-28T20:36:14.150Z,100.00
2023-05-28T20:38:46.819Z,100.00
2023-05-28T20:41:16.017Z,100.00
2023-05-28T20:43:46.160Z,100.00
2023-05-28T20:46:14.501Z,100.00
2023-05-28T20:48:42.766Z,100.00
2023-05-28T20:51:11.023Z,100.00
2023-05-28T20:53:39.363Z,100.00
2023-05-28T20:56:07.938Z,100.00
2023-05-28T20:58:39.118Z,100.00
2023-05-28T21:01:10.497Z,100.00
2023-05-28T21:03:38.850Z,100.00
2023-05-28T21:06:07.341Z,100.00
2023-05-28T21:08:36.911Z,100.00
2023-05-28T21:11:05.431Z,100.00
2023-05-28T21:13:33.837Z,100.00
2023-05-28T21:16:02.079Z,100.00
2023-05-28T21:18:31.915Z,100.00
2023-05-28T21:21:00.507Z,100.00
2023-05-28T21:23:28.912Z,100.00
2023-05-28T21:25:57.158Z,100.00
2023-05-28T21:28:25.408Z,100.00
2023-05-28T21:30:54.727Z,100.00
2023-05-28T21:33:23.337Z,100.00
2023-05-28T21:35:53.276Z,100.00
2023-05-28T21:38:21.834Z,100.00
2023-05-28T21:40:50.180Z,100.00
2023-05-28T21:43:18.473Z,100.00
2023-05-28T21:45:46.989Z,100.00
2023-05-28T21:48:15.743Z,100.00
2023-05-28T21:50:44.501Z,100.00
2023-05-28T21:53:14.820Z,100.00
2023-05-28T21:55:43.138Z,100.00
2023-05-28T21:58:11.409Z,100.00
2023-05-28T22:00:39.737Z,100.00
2023-05-28T22:03:08.168Z,100.00
2023-05-28T22:05:36.474Z,100.00
2023-05-28T22:08:04.888Z,100.00
2023-05-28T22:10:34.648Z,100.00
2023-05-28T22:13:03.197Z,100.00
2023-05-28T22:15:31.562Z,100.00
2023-05-28T22:17:59.933Z,100.00
2023-05-28T22:20:41.570Z,100.00
2023-05-28T22:23:11.995Z,100.00
2023-05-28T22:25:41.907Z,100.00
2023-05-28T22:28:10.485Z,100.00
2023-05-28T22:30:38.862Z,100.00
2023-05-28T22:33:07.710Z,100.00
2023-05-28T22:35:36.288Z,100.00
2023-05-28T22:38:04.559Z,100.00
2023-05-28T22:40:33.816Z,100.00
2023-05-28T22:43:03.675Z,100.00
2023-05-28T22:45:32.009Z,100.00
2023-05-28T22:48:00.279Z,100.00
2023-05-28T22:50:28.707Z,100.00
2023-05-28T22:52:57.002Z,100.00
2023-05-28T22:55:28.277Z,100.00
2023-05-28T22:57:56.625Z,100.00
2023-05-28T23:00:26.351Z,100.00
2023-05-28T23:02:54.728Z,100.00
2023-05-28T23:05:23.514Z,100.00
2023-05-28T23:07:52.146Z,100.00
2023-05-28T23:10:20.840Z,100.00
2023-05-28T23:12:49.074Z,100.00
2023-05-28T23:15:19.135Z,100.00
2023-05-28T23:17:51.500Z,100.00
2023-05-28T23:20:19.943Z,100.00
2023-05-28T23:22:48.310Z,100.00
2023-05-28T23:25:16.579Z,100.00
2023-05-28T23:27:44.952Z,100.00
2023-05-28T23:30:13.575Z,100.00
2023-05-28T23:32:42.279Z,100.00
2023-05-28T23:35:12.266Z,100.00
2023-05-28T23:37:41.089Z,100.00
2023-05-28T23:40:12.179Z,100.00
2023-05-28T23:42:40.612Z,100.00
2023-05-28T23:45:10.245Z,100.00
2023-05-28T23:47:39.087Z,100.00
2023-05-28T23:50:09.591Z,100.00
2023-05-28T23:52:39.241Z,100.00
2023-05-28T23:55:08.235Z,100.00
2023-05-28T23:57:36.503Z,100.00
